Terminal Aerodrome Forecast
Issued by NWS

Home | Current Version | Previous Version | Text Only | Print | Product List | Glossary On
Versions: 1 2 3 4 5 6 7 8 9 10 11 12 13 14 15 16
000
FTUS44 KBMX 242300
TAFMGM
TAF
KMGM 242323Z 2500/2524 25004KT P6SM SCT250
     FM251100 20003KT P6SM SCT015
     FM251400 20006KT P6SM SCT250
     FM251800 21010G18KT P6SM SCT040 BKN120=

USA.gov is the U.S. government's official web portal to all federal, state and local government web resources and services.